createdAt,value
2019-05-14T00:00:21.626Z,103821.91
2019-05-14T00:02:54.734Z,103820.50
2019-05-14T00:05:27.642Z,103817.44
2019-05-14T00:08:02.339Z,103819.84
2019-05-14T00:10:35.377Z,103819.13
2019-05-14T00:13:08.262Z,103815.79
2019-05-14T00:15:41.542Z,103820.83
2019-05-14T00:18:14.809Z,103816.07
2019-05-14T00:20:47.708Z,103815.65
2019-05-14T00:23:21.558Z,103814.70
2019-05-14T00:25:54.635Z,103813.36
2019-05-14T00:28:27.519Z,103810.56
2019-05-14T00:31:02.629Z,103810.56
2019-05-14T00:33:35.008Z,103805.27
2019-05-14T00:36:08.142Z,103799.27
2019-05-14T00:38:42.029Z,103793.38
2019-05-14T00:41:14.956Z,103793.38
2019-05-14T00:43:47.803Z,103797.81
2019-05-14T00:46:21.244Z,103795.83
2019-05-14T00:48:54.228Z,103795.83
2019-05-14T00:51:27.471Z,103799.31
2019-05-14T00:54:01.685Z,103799.01
2019-05-14T00:56:34.648Z,103793.02
2019-05-14T00:59:08.335Z,103796.73
2019-05-14T01:01:42.511Z,103797.88
2019-05-14T01:04:15.618Z,103795.69
2019-05-14T01:06:50.982Z,103795.69
2019-05-14T01:09:23.232Z,103796.42
2019-05-14T01:11:56.055Z,103787.58
2019-05-14T01:14:28.896Z,103788.95
2019-05-14T01:17:02.182Z,103788.45
2019-05-14T01:19:35.184Z,103788.45
2019-05-14T01:22:08.012Z,103789.84
2019-05-14T01:24:41.757Z,103794.77
2019-05-14T01:27:14.755Z,103792.16
2019-05-14T01:29:47.619Z,103792.16
2019-05-14T01:32:22.120Z,103804.25
2019-05-14T01:34:54.977Z,103797.62
2019-05-14T01:37:27.810Z,103798.64
2019-05-14T01:40:01.152Z,103796.52
2019-05-14T01:42:34.256Z,103803.72
2019-05-14T01:45:20.229Z,103803.72
2019-05-14T01:47:41.817Z,103799.44
2019-05-14T01:50:14.707Z,103798.63
2019-05-14T01:52:47.599Z,103789.41
2019-05-14T01:55:21.945Z,103790.00
2019-05-14T01:57:55.505Z,103794.93
2019-05-14T02:00:28.439Z,103797.31
2019-05-14T02:03:01.978Z,103799.11
2019-05-14T02:05:34.852Z,103799.11
2019-05-14T02:08:07.704Z,103784.81
2019-05-14T02:10:41.948Z,103778.41
2019-05-14T02:13:14.991Z,103775.59
2019-05-14T02:15:47.832Z,103777.36
2019-05-14T02:18:21.718Z,103770.17
2019-05-14T02:20:54.727Z,103767.00
2019-05-14T02:23:27.851Z,103763.91
2019-05-14T02:26:02.503Z,103770.53
2019-05-14T02:28:35.307Z,103770.53
2019-05-14T02:31:09.421Z,103761.65
2019-05-14T02:33:42.514Z,103761.65
2019-05-14T02:36:19.234Z,103752.94
2019-05-14T02:38:51.019Z,103750.88
2019-05-14T02:41:24.003Z,103745.66
2019-05-14T02:43:59.383Z,103752.48
2019-05-14T02:46:31.544Z,103746.80
2019-05-14T02:49:04.557Z,103741.64
2019-05-14T02:51:39.149Z,103745.29
2019-05-14T02:54:12.190Z,103748.94
2019-05-14T02:56:45.351Z,103748.67
2019-05-14T02:59:19.617Z,103745.57
2019-05-14T03:01:52.738Z,103741.62
2019-05-14T03:04:25.900Z,103740.34
2019-05-14T03:06:59.369Z,103738.15
2019-05-14T03:09:32.560Z,103732.80
2019-05-14T03:12:05.646Z,103732.80
2019-05-14T03:14:39.754Z,103725.66
2019-05-14T03:17:13.061Z,103724.28
2019-05-14T03:19:49.325Z,103724.23
2019-05-14T03:22:25.873Z,103729.09
2019-05-14T03:24:55.625Z,103732.09
2019-05-14T03:27:30.386Z,103724.46
2019-05-14T03:30:04.013Z,103729.33
2019-05-14T03:32:41.717Z,103725.83
2019-05-14T03:35:13.964Z,103724.74
2019-05-14T03:37:49.367Z,103727.02
2019-05-14T03:40:21.316Z,103727.02
2019-05-14T03:42:54.521Z,103718.14
2019-05-14T03:45:29.991Z,103718.14
2019-05-14T03:48:02.158Z,103723.04
2019-05-14T03:50:35.092Z,103721.37
2019-05-14T03:53:10.097Z,103716.47
2019-05-14T03:55:43.214Z,103716.47
2019-05-14T03:58:20.663Z,103723.52
2019-05-14T04:01:00.008Z,103718.45
2019-05-14T04:03:31.534Z,103717.38
2019-05-14T04:06:05.126Z,103720.41
2019-05-14T04:08:40.223Z,103716.67
2019-05-14T04:11:15.732Z,103716.67
2019-05-14T04:13:51.672Z,103701.39
2019-05-14T04:16:29.176Z,103701.39
2019-05-14T04:19:02.391Z,103702.14
2019-05-14T04:21:39.811Z,103698.61
2019-05-14T04:24:13.531Z,103698.61
2019-05-14T04:27:01.035Z,103692.28
2019-05-14T04:29:25.837Z,103692.28
2019-05-14T04:32:00.144Z,103690.05
2019-05-14T04:34:33.534Z,103694.04
2019-05-14T04:37:09.725Z,103700.70
2019-05-14T04:39:41.698Z,103700.70
2019-05-14T04:42:14.620Z,103702.75
2019-05-14T04:44:50.209Z,103695.84
2019-05-14T04:47:32.283Z,103693.45
2019-05-14T04:49:59.119Z,103696.03
2019-05-14T04:52:32.233Z,103696.03
2019-05-14T04:55:05.440Z,103696.77
2019-05-14T04:57:39.237Z,103703.18
2019-05-14T05:00:12.946Z,103703.45
2019-05-14T05:02:45.930Z,103703.45
2019-05-14T05:05:19.616Z,103699.18
2019-05-14T05:07:52.611Z,103703.05
2019-05-14T05:10:25.571Z,103703.28
2019-05-14T05:12:58.743Z,103704.27
2019-05-14T05:15:31.895Z,103692.38
2019-05-14T05:18:04.919Z,103692.38
2019-05-14T05:20:39.340Z,103691.80
2019-05-14T05:23:12.476Z,103697.67
2019-05-14T05:25:45.323Z,103697.67
2019-05-14T05:28:19.046Z,103701.14
2019-05-14T05:30:51.984Z,103705.73
2019-05-14T05:35:59.326Z,103699.02
2019-05-14T05:38:32.036Z,103699.02
2019-05-14T05:41:05.139Z,103696.92
2019-05-14T05:43:39.353Z,103699.89
2019-05-14T05:46:12.383Z,103699.89
2019-05-14T05:48:45.313Z,103695.38
2019-05-14T05:51:18.957Z,103709.80
2019-05-14T05:53:51.959Z,103702.67
2019-05-14T05:56:24.802Z,103702.67
2019-05-14T05:58:57.652Z,103700.07
2019-05-14T06:01:41.698Z,103690.43
2019-05-14T06:04:05.188Z,103690.43
2019-05-14T06:06:39.012Z,103705.28
2019-05-14T06:09:12.131Z,103705.28
2019-05-14T06:11:44.988Z,103703.62
2019-05-14T06:14:18.616Z,103707.56
2019-05-14T06:16:51.931Z,103707.56
2019-05-14T06:19:25.233Z,103708.48
2019-05-14T06:21:59.627Z,103710.19
2019-05-14T06:24:32.774Z,103709.54
2019-05-14T06:27:05.715Z,103726.03
2019-05-14T06:29:38.591Z,103722.67
2019-05-14T06:32:11.459Z,103724.50
2019-05-14T06:34:44.332Z,103726.10
2019-05-14T06:37:19.218Z,103730.23
2019-05-14T06:39:51.833Z,103725.77
2019-05-14T06:42:24.935Z,103725.77
2019-05-14T06:44:58.611Z,103734.43
2019-05-14T06:47:31.731Z,103734.43
2019-05-14T06:50:04.947Z,103732.28
2019-05-14T06:52:38.896Z,103732.28
2019-05-14T06:55:12.509Z,103732.64
2019-05-14T06:57:47.869Z,103723.77
2019-05-14T07:00:20.412Z,103723.77
2019-05-14T07:02:53.585Z,103726.24
2019-05-14T07:05:28.144Z,103729.04
2019-05-14T07:08:01.320Z,103729.04
2019-05-14T07:10:34.460Z,103729.38
2019-05-14T07:13:08.583Z,103730.51
2019-05-14T07:15:41.561Z,103728.84
2019-05-14T07:18:14.432Z,103725.95
2019-05-14T07:20:48.562Z,103728.98
2019-05-14T07:23:21.926Z,103728.98
2019-05-14T07:25:54.881Z,103725.26
2019-05-14T07:28:28.832Z,103725.26
2019-05-14T07:31:02.048Z,103728.48
2019-05-14T07:33:35.195Z,103733.39
2019-05-14T07:36:08.890Z,103734.66
2019-05-14T07:38:41.960Z,103734.66
2019-05-14T07:41:14.833Z,103724.82
2019-05-14T07:43:48.433Z,103732.98
2019-05-14T07:46:21.373Z,103732.98
2019-05-14T07:49:07.234Z,103722.32
2019-05-14T07:51:28.805Z,103722.32
2019-05-14T07:54:01.665Z,103723.01
2019-05-14T07:56:34.532Z,103714.11
2019-05-14T07:59:08.938Z,103707.81
2019-05-14T08:01:41.905Z,103701.61
2019-05-14T08:04:17.858Z,103701.61
2019-05-14T08:06:49.687Z,103698.67
2019-05-14T08:09:22.597Z,103683.58
2019-05-14T08:11:55.440Z,103703.84
2019-05-14T08:14:29.490Z,103695.39
2019-05-14T08:17:03.025Z,103697.82
2019-05-14T08:19:38.347Z,103697.82
2019-05-14T08:22:10.573Z,103701.48
2019-05-14T08:24:43.501Z,103698.39
2019-05-14T08:27:16.410Z,103698.38
2019-05-14T08:29:49.264Z,103689.15
2019-05-14T08:32:22.444Z,103699.12
2019-05-14T08:34:55.882Z,103696.59
2019-05-14T08:37:28.716Z,103697.13
2019-05-14T08:40:01.611Z,103704.80
2019-05-14T08:42:35.259Z,103701.73
2019-05-14T08:45:10.527Z,103701.73
2019-05-14T08:47:43.553Z,103693.19
2019-05-14T08:50:18.689Z,103694.39
2019-05-14T08:52:51.684Z,103676.31
2019-05-14T08:55:24.687Z,103676.31
2019-05-14T08:57:59.278Z,103689.20
2019-05-14T09:00:32.516Z,103691.16
2019-05-14T09:03:05.431Z,103699.33
2019-05-14T09:05:38.757Z,103699.33
2019-05-14T09:08:11.696Z,103697.92
2019-05-14T09:10:44.546Z,103714.55
2019-05-14T09:13:18.473Z,103711.31
2019-05-14T09:15:51.844Z,103711.31
2019-05-14T09:18:24.927Z,103704.74
2019-05-14T09:20:58.360Z,103689.03
2019-05-14T09:23:31.213Z,103677.80
2019-05-14T09:26:04.144Z,103677.80
2019-05-14T09:28:39.217Z,103667.25
2019-05-14T09:31:11.813Z,103655.61
2019-05-14T09:33:44.743Z,103655.61
2019-05-14T09:36:20.457Z,103669.80
2019-05-14T09:38:52.525Z,103658.10
2019-05-14T09:41:27.805Z,103658.10
2019-05-14T09:43:59.954Z,103659.27
2019-05-14T09:46:33.018Z,103648.06
2019-05-14T09:49:07.903Z,103640.56
2019-05-14T09:51:40.700Z,103638.96
2019-05-14T09:54:13.553Z,103632.96
2019-05-14T09:56:48.578Z,103632.96
2019-05-14T09:59:21.032Z,103629.74
2019-05-14T10:01:53.900Z,103621.47
2019-05-14T10:04:26.740Z,103632.84
2019-05-14T10:06:59.594Z,103620.28
2019-05-14T10:09:32.439Z,103628.12
2019-05-14T10:12:05.375Z,103632.00
2019-05-14T10:14:39.242Z,103632.00
2019-05-14T10:17:12.454Z,103622.45
2019-05-14T10:19:45.288Z,103619.61
2019-05-14T10:22:19.759Z,103616.59
2019-05-14T10:24:52.818Z,103616.59
2019-05-14T10:27:28.255Z,103604.63
2019-05-14T10:30:00.222Z,103607.33
2019-05-14T10:32:33.092Z,103607.33
2019-05-14T10:35:08.394Z,103601.15
2019-05-14T10:37:40.775Z,103595.02
2019-05-14T10:40:13.952Z,103591.31
2019-05-14T10:42:49.261Z,103590.95
2019-05-14T10:45:21.519Z,103590.95
2019-05-14T10:47:54.464Z,103590.56
2019-05-14T10:50:28.978Z,103576.62
2019-05-14T10:53:01.929Z,103571.46
2019-05-14T10:55:34.731Z,103566.31
2019-05-14T10:58:08.880Z,103564.85
2019-05-14T11:00:42.198Z,103564.85
2019-05-14T11:03:15.024Z,103556.47
2019-05-14T11:05:48.279Z,103556.47
2019-05-14T11:08:21.522Z,103563.55
2019-05-14T11:10:54.380Z,103563.55
2019-05-14T11:13:29.227Z,103553.17
2019-05-14T11:16:01.944Z,103553.05
2019-05-14T11:18:34.774Z,103551.65
2019-05-14T11:21:19.871Z,103551.65
2019-05-14T11:23:42.497Z,103541.55
2019-05-14T11:26:18.238Z,103527.37
2019-05-14T11:28:50.209Z,103527.37
2019-05-14T11:31:23.136Z,103525.09
2019-05-14T11:33:58.861Z,103524.91
2019-05-14T11:36:30.696Z,103516.35
2019-05-14T11:39:05.615Z,103521.34
2019-05-14T11:41:39.066Z,103506.64
2019-05-14T11:44:12.032Z,103501.70
2019-05-14T11:46:52.283Z,103498.00
2019-05-14T11:49:19.718Z,103495.88
2019-05-14T11:52:04.238Z,103495.88
2019-05-14T11:54:29.172Z,103500.22
2019-05-14T11:57:01.955Z,103498.05
2019-05-14T11:59:34.802Z,103499.16
2019-05-14T12:02:09.654Z,103492.77
2019-05-14T12:04:42.294Z,103483.70
2019-05-14T12:07:15.107Z,103479.05
2019-05-14T12:09:48.554Z,103473.58
2019-05-14T12:12:21.373Z,103474.34
2019-05-14T12:14:54.580Z,103468.64
2019-05-14T12:17:29.548Z,103463.97
2019-05-14T12:20:02.276Z,103461.89
2019-05-14T12:22:35.155Z,103469.50
2019-05-14T12:25:08.354Z,103453.81
2019-05-14T12:27:41.168Z,103453.81
2019-05-14T12:30:14.807Z,103450.97
2019-05-14T12:32:50.060Z,103440.97
2019-05-14T12:35:22.613Z,103440.97
2019-05-14T12:37:55.464Z,103436.21
2019-05-14T12:40:28.901Z,103435.16
2019-05-14T12:43:01.958Z,103433.20
2019-05-14T12:45:34.789Z,103432.87
2019-05-14T12:48:09.343Z,103443.22
2019-05-14T12:50:42.615Z,103431.27
2019-05-14T12:53:15.521Z,103426.45
2019-05-14T12:55:48.766Z,103426.45
2019-05-14T12:58:21.801Z,103425.31
2019-05-14T13:00:54.713Z,103418.78
2019-05-14T13:03:28.477Z,103410.09
2019-05-14T13:06:01.472Z,103396.54
2019-05-14T13:08:34.292Z,103395.77
2019-05-14T13:11:09.708Z,103397.56
2019-05-14T13:13:42.907Z,103389.86
2019-05-14T13:16:18.736Z,103386.70
2019-05-14T13:18:51.119Z,103376.47
2019-05-14T13:21:24.265Z,103370.77
2019-05-14T13:23:57.166Z,103366.27
2019-05-14T13:26:30.026Z,103371.28
2019-05-14T13:29:07.056Z,103368.71
2019-05-14T13:31:37.797Z,103368.71
2019-05-14T13:34:10.782Z,103364.06
2019-05-14T13:36:44.983Z,103369.43
2019-05-14T13:39:19.409Z,103358.02
2019-05-14T13:41:52.742Z,103360.09
2019-05-14T13:44:25.573Z,103348.02
2019-05-14T13:46:59.537Z,103347.84
2019-05-14T13:49:32.605Z,103349.02
2019-05-14T13:52:05.469Z,103353.72
2019-05-14T13:54:39.334Z,103346.59
2019-05-14T13:57:12.506Z,103345.77
2019-05-14T13:59:45.347Z,103345.75
2019-05-14T14:02:19.049Z,103339.03
2019-05-14T14:04:51.978Z,103335.22
2019-05-14T14:07:24.822Z,103331.77
2019-05-14T14:09:59.087Z,103325.14
2019-05-14T14:12:32.568Z,103319.11
2019-05-14T14:15:09.205Z,103312.95
2019-05-14T14:17:40.966Z,103314.81
2019-05-14T14:20:14.261Z,103312.07
2019-05-14T14:22:49.051Z,103307.08
2019-05-14T14:25:22.099Z,103303.58
2019-05-14T14:27:55.300Z,103303.58
2019-05-14T14:30:28.628Z,103306.03
2019-05-14T14:33:01.561Z,103299.61
2019-05-14T14:35:35.104Z,103301.39
2019-05-14T14:38:08.707Z,103291.83
2019-05-14T14:40:41.762Z,103282.88
2019-05-14T14:43:14.585Z,103276.99
2019-05-14T14:45:50.519Z,103272.42
2019-05-14T14:48:22.318Z,103267.53
2019-05-14T14:50:55.163Z,103267.53
2019-05-14T14:53:45.954Z,103266.97
2019-05-14T14:56:03.069Z,103263.55
2019-05-14T14:58:39.003Z,103261.64
2019-05-14T15:01:11.382Z,103252.39
2019-05-14T15:03:44.386Z,103252.39
2019-05-14T15:06:17.427Z,103247.13
2019-05-14T15:08:50.262Z,103244.51
2019-05-14T15:11:23.113Z,103248.67
2019-05-14T15:13:55.936Z,103244.84
2019-05-14T15:16:30.528Z,103244.84
2019-05-14T15:19:03.681Z,103241.05
2019-05-14T15:21:36.525Z,103244.45
2019-05-14T15:24:14.882Z,103232.70
2019-05-14T15:26:44.001Z,103232.11
2019-05-14T15:29:18.645Z,103219.66
2019-05-14T15:31:51.414Z,103217.85
2019-05-14T15:34:24.246Z,103218.95
2019-05-14T15:36:59.876Z,103216.77
2019-05-14T15:39:32.313Z,103212.14
2019-05-14T15:42:06.551Z,103206.53
2019-05-14T15:44:48.594Z,103206.53
2019-05-14T15:47:14.589Z,103201.26
2019-05-14T15:49:48.895Z,103196.21
2019-05-14T15:52:21.912Z,103196.21
2019-05-14T15:54:54.827Z,103190.15
2019-05-14T15:57:28.888Z,103195.65
2019-05-14T16:00:02.898Z,103189.59
2019-05-14T16:02:38.623Z,103190.64
2019-05-14T16:05:10.802Z,103177.58
2019-05-14T16:07:43.696Z,103186.45
2019-05-14T16:10:17.013Z,103181.11
2019-05-14T16:12:50.238Z,103182.66
2019-05-14T16:15:23.313Z,103178.25
2019-05-14T16:18:08.177Z,103178.25
2019-05-14T16:20:30.881Z,103175.84
2019-05-14T16:23:03.830Z,103176.11
2019-05-14T16:25:38.051Z,103171.81
2019-05-14T16:28:11.158Z,103166.09
2019-05-14T16:30:44.113Z,103166.58
2019-05-14T16:33:18.510Z,103161.95
2019-05-14T16:35:51.891Z,103158.53
2019-05-14T16:38:24.753Z,103158.53
2019-05-14T16:40:59.559Z,103157.35
2019-05-14T16:43:32.887Z,103163.45
2019-05-14T16:46:05.858Z,103165.30
2019-05-14T16:48:39.684Z,103166.43
2019-05-14T16:51:12.830Z,103163.53
2019-05-14T16:53:45.726Z,103155.53
2019-05-14T16:56:19.248Z,103167.18
2019-05-14T16:58:52.596Z,103156.53
2019-05-14T17:01:25.571Z,103156.53
2019-05-14T17:03:59.619Z,103150.82
2019-05-14T17:06:34.657Z,103151.69
2019-05-14T17:09:08.815Z,103153.34
2019-05-14T17:11:41.781Z,103156.70
2019-05-14T17:14:14.934Z,103154.59
2019-05-14T17:16:49.034Z,103152.53
2019-05-14T17:19:22.120Z,103145.71
2019-05-14T17:21:55.182Z,103148.94
2019-05-14T17:24:29.153Z,103141.03
2019-05-14T17:27:02.454Z,103141.03
2019-05-14T17:29:35.614Z,103143.50
2019-05-14T17:32:08.560Z,103142.16
2019-05-14T17:34:41.387Z,103147.80
2019-05-14T17:37:14.335Z,103147.80
2019-05-14T17:39:49.009Z,103149.55
2019-05-14T17:42:21.838Z,103149.55
2019-05-14T17:44:54.674Z,103147.28
2019-05-14T17:47:29.060Z,103147.28
2019-05-14T17:50:02.434Z,103149.50
2019-05-14T17:52:41.574Z,103149.50
2019-05-14T17:55:12.780Z,103149.97
2019-05-14T17:57:55.008Z,103143.61
2019-05-14T18:00:20.863Z,103143.98
2019-05-14T18:02:53.806Z,103141.64
2019-05-14T18:05:29.105Z,103139.41
2019-05-14T18:08:01.589Z,103122.39
2019-05-14T18:10:34.717Z,103124.07
2019-05-14T18:13:09.296Z,103124.07
2019-05-14T18:15:42.603Z,103124.80
2019-05-14T18:18:18.332Z,103125.73
2019-05-14T18:20:50.464Z,103125.02
2019-05-14T18:23:23.676Z,103129.89
2019-05-14T18:26:04.876Z,103134.34
2019-05-14T18:28:31.558Z,103126.52
2019-05-14T18:31:04.558Z,103127.78
2019-05-14T18:33:39.757Z,103127.78
2019-05-14T18:36:12.208Z,103126.47
2019-05-14T18:38:45.218Z,103128.27
2019-05-14T18:41:18.955Z,103121.42
2019-05-14T18:43:52.229Z,103117.70
2019-05-14T18:46:25.066Z,103117.70
2019-05-14T18:48:59.195Z,103118.92
2019-05-14T18:51:32.420Z,103118.92
2019-05-14T18:54:05.288Z,103120.60
2019-05-14T18:56:38.560Z,103115.44
2019-05-14T18:59:11.796Z,103119.83
2019-05-14T19:01:48.897Z,103119.83
2019-05-14T19:04:22.700Z,103120.07
2019-05-14T19:06:55.624Z,103124.98
2019-05-14T19:09:29.497Z,103123.22
2019-05-14T19:12:02.634Z,103126.79
2019-05-14T19:14:35.785Z,103126.79
2019-05-14T19:17:09.237Z,103127.94
2019-05-14T19:19:42.352Z,103121.66
2019-05-14T19:22:15.349Z,103124.83
2019-05-14T19:24:49.212Z,103134.13
2019-05-14T19:27:22.162Z,103134.13
2019-05-14T19:29:55.120Z,103126.81
2019-05-14T19:32:28.578Z,103123.95
2019-05-14T19:35:01.577Z,103119.11
2019-05-14T19:37:34.728Z,103119.11
2019-05-14T19:40:09.212Z,103121.91
2019-05-14T19:42:42.403Z,103121.91
2019-05-14T19:45:15.674Z,103124.83
2019-05-14T19:47:49.387Z,103130.25
2019-05-14T19:50:22.401Z,103124.91
2019-05-14T19:52:55.575Z,103124.91
2019-05-14T19:55:29.216Z,103122.85
2019-05-14T19:58:02.256Z,103128.47
2019-05-14T20:00:38.230Z,103131.16
2019-05-14T20:03:11.098Z,103123.79
2019-05-14T20:05:44.148Z,103129.38
2019-05-14T20:08:18.989Z,103124.16
2019-05-14T20:10:51.953Z,103124.16
2019-05-14T20:13:24.921Z,103125.09
2019-05-14T20:15:59.079Z,103118.03
2019-05-14T20:18:32.295Z,103120.02
2019-05-14T20:21:05.259Z,103115.44
2019-05-14T20:23:38.855Z,103116.18
2019-05-14T20:26:12.160Z,103116.18
2019-05-14T20:28:45.212Z,103117.31
2019-05-14T20:31:18.464Z,103116.84
2019-05-14T20:33:51.996Z,103119.14
2019-05-14T20:36:28.081Z,103107.67
2019-05-14T20:39:00.803Z,103107.67
2019-05-14T20:41:33.693Z,103106.39
2019-05-14T20:44:06.644Z,103106.39
2019-05-14T20:46:39.641Z,103113.88
2019-05-14T20:49:12.913Z,103109.70
2019-05-14T20:51:45.818Z,103109.70
2019-05-14T20:54:18.810Z,103115.18
2019-05-14T20:56:51.975Z,103110.63
2019-05-14T20:59:24.990Z,103114.71
2019-05-14T21:01:58.904Z,103114.71
2019-05-14T21:04:32.116Z,103110.77
2019-05-14T21:07:05.326Z,103110.77
2019-05-14T21:09:38.844Z,103107.39
2019-05-14T21:12:12.135Z,103107.39
2019-05-14T21:14:45.089Z,103111.30
2019-05-14T21:17:19.294Z,103111.30
2019-05-14T21:19:52.484Z,103114.87
2019-05-14T21:22:28.857Z,103114.41
2019-05-14T21:25:01.311Z,103106.64
2019-05-14T21:27:43.924Z,103108.32
2019-05-14T21:30:09.986Z,103115.23
2019-05-14T21:32:43.117Z,103115.23
2019-05-14T21:35:20.819Z,103107.26
2019-05-14T21:37:52.410Z,103110.52
2019-05-14T21:40:25.332Z,103110.52
2019-05-14T21:42:58.658Z,103109.97
2019-05-14T21:45:31.585Z,103109.25
2019-05-14T21:48:04.718Z,103103.39
2019-05-14T21:50:38.813Z,103103.39
2019-05-14T21:53:12.032Z,103106.98
2019-05-14T21:55:45.299Z,103106.59
2019-05-14T21:58:19.566Z,103106.59
2019-05-14T22:00:54.711Z,103105.41
2019-05-14T22:03:28.857Z,103105.41
2019-05-14T22:06:01.803Z,103108.25
2019-05-14T22:08:35.250Z,103113.02
2019-05-14T22:11:08.340Z,103110.98
2019-05-14T22:13:41.385Z,103108.98
2019-05-14T22:16:14.343Z,103108.98
2019-05-14T22:18:48.396Z,103106.12
2019-05-14T22:21:21.762Z,103105.48
2019-05-14T22:23:54.750Z,103105.48
2019-05-14T22:26:28.373Z,103102.98
2019-05-14T22:29:01.592Z,103103.69
2019-05-14T22:31:34.592Z,103100.67
2019-05-14T22:34:08.852Z,103096.85
2019-05-14T22:36:42.017Z,103101.84
2019-05-14T22:39:14.945Z,103102.07
2019-05-14T22:41:47.905Z,103093.38
2019-05-14T22:44:20.867Z,103099.54
2019-05-14T22:46:53.850Z,103095.33
2019-05-14T22:49:28.432Z,103095.88
2019-05-14T22:52:01.594Z,103098.42
2019-05-14T22:54:34.717Z,103098.97
2019-05-14T22:57:07.724Z,103097.30
2019-05-14T22:59:40.683Z,103090.64
2019-05-14T23:02:13.690Z,103091.19
2019-05-14T23:04:46.671Z,103089.66
2019-05-14T23:07:19.641Z,103089.66
2019-05-14T23:09:52.607Z,103087.19
2019-05-14T23:12:25.572Z,103088.61
2019-05-14T23:14:58.662Z,103089.30
2019-05-14T23:17:31.617Z,103088.09
2019-05-14T23:20:05.089Z,103081.21
2019-05-14T23:22:39.279Z,103076.66
2019-05-14T23:25:12.614Z,103079.97
2019-05-14T23:27:48.117Z,103079.71
2019-05-14T23:30:31.953Z,103081.23
2019-05-14T23:33:05.356Z,103075.27
2019-05-14T23:35:39.159Z,103074.50
2019-05-14T23:38:14.480Z,103076.46
2019-05-14T23:40:49.392Z,103075.19
2019-05-14T23:43:22.186Z,103070.61
2019-05-14T23:45:55.250Z,103072.75
2019-05-14T23:48:28.211Z,103074.50
2019-05-14T23:51:01.196Z,103065.22
2019-05-14T23:53:34.189Z,103070.20
2019-05-14T23:56:08.578Z,103055.07
2019-05-14T23:58:54.224Z,103062.08
